createdAt,value
2022-08-07T00:00:26.411Z,53.61
2022-08-07T00:02:53.999Z,53.00
2022-08-07T00:05:23.596Z,52.16
2022-08-07T00:07:58.274Z,51.55
2022-08-07T00:10:30.411Z,51.97
2022-08-07T00:13:02.458Z,52.48
2022-08-07T00:15:46.409Z,52.63
2022-08-07T00:18:24.556Z,52.44
2022-08-07T00:21:01.718Z,53.03
2022-08-07T00:23:31.379Z,52.11
2022-08-07T00:26:13.014Z,50.66
2022-08-07T00:28:55.363Z,49.62
2022-08-07T00:31:23.093Z,49.41
2022-08-07T00:33:50.756Z,49.03
2022-08-07T00:36:19.133Z,48.80
2022-08-07T00:38:46.590Z,48.85
2022-08-07T00:41:26.028Z,49.15
2022-08-07T00:43:59.418Z,49.03
2022-08-07T00:46:30.996Z,49.70
2022-08-07T00:49:03.211Z,50.55
2022-08-07T00:51:57.097Z,49.90
2022-08-07T00:54:19.861Z,48.95
2022-08-07T00:56:49.750Z,48.69
2022-08-07T00:59:20.255Z,48.73
2022-08-07T01:02:04.252Z,48.49
2022-08-07T01:04:43.255Z,48.64
2022-08-07T01:07:12.663Z,48.57
2022-08-07T01:10:05.669Z,48.69
2022-08-07T01:12:30.892Z,49.32
2022-08-07T01:15:01.406Z,49.86
2022-08-07T01:17:33.033Z,51.85
2022-08-07T01:20:16.881Z,52.12
2022-08-07T01:22:54.159Z,52.62
2022-08-07T01:25:55.880Z,53.17
2022-08-07T01:28:23.522Z,53.21
2022-08-07T01:30:55.485Z,53.25
2022-08-07T01:33:25.252Z,52.80
2022-08-07T01:36:16.734Z,52.45
2022-08-07T01:38:45.974Z,51.76
2022-08-07T01:41:26.110Z,50.46
2022-08-07T01:43:57.168Z,49.75
2022-08-07T01:46:26.744Z,49.48
2022-08-07T01:48:55.051Z,49.50
2022-08-07T01:52:04.055Z,50.16
2022-08-07T01:54:32.650Z,52.24
2022-08-07T01:57:20.406Z,53.54
2022-08-07T02:00:00.656Z,55.00
2022-08-07T02:03:18.504Z,54.51
2022-08-07T02:05:47.555Z,54.80
2022-08-07T02:08:23.779Z,55.15
2022-08-07T02:10:55.462Z,54.89
2022-08-07T02:13:59.839Z,55.81
2022-08-07T02:16:29.951Z,57.58
2022-08-07T02:19:05.685Z,56.63
2022-08-07T02:21:56.509Z,55.83
2022-08-07T02:24:25.563Z,55.26
2022-08-07T02:27:01.635Z,55.91
2022-08-07T02:29:31.882Z,56.35
2022-08-07T02:32:01.943Z,57.20
2022-08-07T02:34:33.013Z,56.65
2022-08-07T02:37:08.355Z,56.12
2022-08-07T02:39:42.964Z,55.96
2022-08-07T02:42:14.649Z,56.06
2022-08-07T02:44:48.196Z,55.88
2022-08-07T02:47:19.717Z,56.16
2022-08-07T02:49:56.109Z,55.42
2022-08-07T02:52:47.914Z,54.82
2022-08-07T02:55:28.413Z,54.47
2022-08-07T02:58:12.618Z,54.21
2022-08-07T03:00:46.717Z,54.63
2022-08-07T03:03:21.065Z,54.49
2022-08-07T03:05:56.599Z,53.20
2022-08-07T03:08:26.782Z,52.16
2022-08-07T03:10:57.622Z,51.35
2022-08-07T03:13:29.616Z,50.40
2022-08-07T03:16:07.526Z,49.99
2022-08-07T03:18:36.192Z,49.67
2022-08-07T03:21:08.691Z,49.48
2022-08-07T03:24:19.990Z,48.63
2022-08-07T03:26:33.679Z,47.15
2022-08-07T03:29:11.110Z,45.82
2022-08-07T03:31:46.213Z,45.44
2022-08-07T03:34:22.352Z,45.26
2022-08-07T03:36:54.245Z,44.69
2022-08-07T03:39:56.616Z,44.75
2022-08-07T03:42:12.354Z,44.34
2022-08-07T03:44:40.782Z,44.64
2022-08-07T03:47:14.380Z,44.39
2022-08-07T03:49:48.000Z,44.17
2022-08-07T03:52:27.382Z,43.48
2022-08-07T03:55:07.486Z,43.52
2022-08-07T03:58:34.082Z,42.66
2022-08-07T04:00:33.613Z,42.46
2022-08-07T04:03:04.282Z,43.02
2022-08-07T04:05:39.379Z,43.59
2022-08-07T04:08:18.525Z,44.52
2022-08-07T04:10:54.528Z,45.50
2022-08-07T04:14:10.311Z,46.45
2022-08-07T04:16:31.220Z,47.05
2022-08-07T04:19:12.352Z,48.45
2022-08-07T04:21:48.023Z,49.27
2022-08-07T04:24:33.898Z,48.55
2022-08-07T04:27:15.306Z,47.88
2022-08-07T04:30:02.202Z,46.29
2022-08-07T04:32:48.479Z,44.12
2022-08-07T04:35:26.800Z,42.57
2022-08-07T04:38:06.436Z,41.65
2022-08-07T04:40:51.194Z,40.55
2022-08-07T04:44:11.806Z,39.88
2022-08-07T04:47:04.776Z,39.79
2022-08-07T04:50:12.148Z,39.68
2022-08-07T04:52:54.246Z,39.66
2022-08-07T04:58:12.323Z,40.00
2022-08-07T05:00:07.864Z,39.47
2022-08-07T05:02:35.782Z,37.90
2022-08-07T05:05:52.685Z,36.68
2022-08-07T05:09:00.126Z,35.25
2022-08-07T05:11:57.057Z,35.32
2022-08-07T05:14:52.167Z,34.57
2022-08-07T05:17:52.503Z,33.39
2022-08-07T05:20:10.083Z,32.95
2022-08-07T05:22:39.088Z,32.59
2022-08-07T05:25:11.770Z,31.33
2022-08-07T05:28:16.140Z,30.63
2022-08-07T05:30:42.852Z,29.91
2022-08-07T05:33:13.154Z,29.62
2022-08-07T05:35:43.826Z,28.99
2022-08-07T05:38:13.193Z,27.97
2022-08-07T05:41:02.168Z,27.73
2022-08-07T05:43:43.444Z,27.06
2022-08-07T05:46:29.406Z,26.86
2022-08-07T05:48:59.476Z,26.51
2022-08-07T05:51:31.417Z,26.49
2022-08-07T05:54:13.263Z,26.47
2022-08-07T05:56:51.274Z,26.64
2022-08-07T05:59:21.352Z,26.42
2022-08-07T06:01:54.792Z,26.30
2022-08-07T06:04:26.332Z,26.04
2022-08-07T06:07:03.978Z,25.52
2022-08-07T06:09:56.604Z,25.37
2022-08-07T06:12:31.687Z,24.93
2022-08-07T06:15:05.750Z,24.80
2022-08-07T06:17:38.035Z,24.49
2022-08-07T06:20:12.749Z,24.37
2022-08-07T06:23:02.326Z,24.03
2022-08-07T06:25:54.859Z,24.16
2022-08-07T06:28:27.193Z,24.35
2022-08-07T06:30:55.978Z,24.41
2022-08-07T06:33:24.823Z,23.97
2022-08-07T06:36:12.001Z,23.60
2022-08-07T06:38:58.875Z,23.08
2022-08-07T06:42:01.951Z,23.59
2022-08-07T06:44:41.282Z,23.67
2022-08-07T06:47:10.308Z,23.54
2022-08-07T06:49:51.920Z,23.39
2022-08-07T06:52:38.163Z,23.55
2022-08-07T06:55:33.949Z,24.17
2022-08-07T06:58:11.517Z,25.86
2022-08-07T07:00:47.021Z,27.56
2022-08-07T07:03:26.351Z,28.92
2022-08-07T07:06:11.531Z,31.04
2022-08-07T07:08:39.894Z,32.23
2022-08-07T07:12:08.868Z,32.85
2022-08-07T07:14:03.801Z,33.78
2022-08-07T07:16:45.445Z,34.56
2022-08-07T07:19:55.923Z,35.57
2022-08-07T07:22:36.560Z,36.19
2022-08-07T07:25:13.975Z,36.64
2022-08-07T07:27:56.083Z,36.89
2022-08-07T07:30:38.616Z,37.00
2022-08-07T07:33:12.028Z,37.25
2022-08-07T07:35:50.648Z,37.61
2022-08-07T07:38:31.663Z,38.19
2022-08-07T07:41:08.614Z,38.42
2022-08-07T07:44:14.732Z,38.33
2022-08-07T07:46:39.931Z,38.01
2022-08-07T07:50:32.477Z,38.43
2022-08-07T07:52:10.401Z,38.48
2022-08-07T07:54:40.013Z,38.38
2022-08-07T07:57:43.598Z,38.25
2022-08-07T08:00:10.048Z,38.28
2022-08-07T08:03:01.135Z,38.13
2022-08-07T08:05:42.829Z,38.13
2022-08-07T08:08:35.708Z,38.12
2022-08-07T08:11:16.153Z,38.37
2022-08-07T08:13:53.988Z,38.61
2022-08-07T08:16:40.746Z,38.48
2022-08-07T08:20:19.750Z,39.08
2022-08-07T08:22:33.002Z,39.10
2022-08-07T08:25:41.867Z,39.17
2022-08-07T08:28:17.026Z,38.91
2022-08-07T08:30:57.498Z,39.23
2022-08-07T08:33:33.094Z,39.18
2022-08-07T08:36:03.226Z,39.49
2022-08-07T08:38:50.857Z,39.50
2022-08-07T08:41:58.667Z,39.61
2022-08-07T08:44:49.464Z,39.46
2022-08-07T08:47:31.610Z,39.36
2022-08-07T08:50:35.378Z,39.19
2022-08-07T08:53:34.268Z,39.27
2022-08-07T08:56:16.965Z,39.31
2022-08-07T08:59:12.785Z,39.44
2022-08-07T09:02:08.756Z,39.65
2022-08-07T09:04:58.609Z,40.11
2022-08-07T09:07:28.835Z,39.80
2022-08-07T09:10:19.021Z,39.85
2022-08-07T09:13:03.721Z,40.39
2022-08-07T09:16:21.618Z,40.51
2022-08-07T09:18:41.743Z,40.48
2022-08-07T09:22:22.735Z,40.90
2022-08-07T09:25:33.868Z,40.74
2022-08-07T09:30:03.470Z,41.08
2022-08-07T09:31:08.680Z,41.38
2022-08-07T09:34:08.738Z,41.59
2022-08-07T09:37:00.110Z,41.76
2022-08-07T09:39:54.943Z,41.87
2022-08-07T09:42:29.303Z,41.95
2022-08-07T09:47:25.583Z,42.12
2022-08-07T09:48:50.121Z,42.05
2022-08-07T09:52:16.094Z,42.13
2022-08-07T09:54:44.146Z,41.94
2022-08-07T09:57:46.727Z,41.78
2022-08-07T10:00:29.935Z,41.36
2022-08-07T10:04:06.247Z,41.73
2022-08-07T10:06:32.084Z,42.34
2022-08-07T10:09:34.326Z,42.98
2022-08-07T10:12:31.154Z,44.15
2022-08-07T10:15:32.873Z,44.02
2022-08-07T10:18:17.571Z,44.08
2022-08-07T10:22:14.982Z,44.21
2022-08-07T10:24:18.637Z,44.07
2022-08-07T10:26:58.141Z,43.54
2022-08-07T10:29:45.786Z,43.41
2022-08-07T10:32:51.569Z,42.72
2022-08-07T10:35:53.508Z,42.84
2022-08-07T10:38:48.868Z,43.02
2022-08-07T10:41:51.894Z,43.72
2022-08-07T10:44:39.061Z,44.53
2022-08-07T10:48:11.403Z,44.31
2022-08-07T10:50:52.568Z,44.38
2022-08-07T10:53:44.069Z,43.69
2022-08-07T10:56:34.586Z,43.72
2022-08-07T10:59:41.304Z,43.47
2022-08-07T11:02:35.107Z,43.22
2022-08-07T11:05:35.691Z,42.56
2022-08-07T11:08:30.559Z,42.81
2022-08-07T11:11:06.526Z,42.86
2022-08-07T11:14:46.195Z,42.38
2022-08-07T11:16:37.278Z,42.15
2022-08-07T11:19:35.559Z,41.42
2022-08-07T11:22:18.808Z,40.52
2022-08-07T11:25:14.889Z,39.13
2022-08-07T11:28:01.269Z,38.70
2022-08-07T11:30:43.006Z,38.03
2022-08-07T11:33:15.094Z,37.29
2022-08-07T11:35:59.712Z,37.50
2022-08-07T11:38:56.460Z,37.20
2022-08-07T11:42:02.170Z,36.79
2022-08-07T11:44:28.456Z,37.03
2022-08-07T11:47:39.210Z,36.98
2022-08-07T11:50:57.911Z,37.21
2022-08-07T11:54:10.464Z,38.64
2022-08-07T11:56:59.872Z,40.89
2022-08-07T12:00:10.021Z,43.27
2022-08-07T12:02:56.165Z,43.82
2022-08-07T12:06:02.799Z,44.51
2022-08-07T12:09:05.584Z,45.11
2022-08-07T12:12:10.782Z,46.03
2022-08-07T12:14:39.232Z,46.66
2022-08-07T12:17:20.011Z,47.30
2022-08-07T12:20:04.716Z,48.12
2022-08-07T12:22:58.241Z,49.04
2022-08-07T12:26:06.139Z,50.47
2022-08-07T12:28:57.939Z,50.92
2022-08-07T12:31:53.304Z,50.50
2022-08-07T12:34:33.811Z,50.60
2022-08-07T12:37:08.336Z,50.66
2022-08-07T12:39:50.900Z,51.46
2022-08-07T12:42:27.880Z,51.85
2022-08-07T12:45:05.773Z,52.00
2022-08-07T12:48:51.822Z,52.66
2022-08-07T12:51:21.433Z,53.21
2022-08-07T12:54:37.305Z,52.49
2022-08-07T12:57:09.582Z,52.10
2022-08-07T12:59:55.475Z,51.86
2022-08-07T13:02:25.017Z,52.24
2022-08-07T13:06:02.707Z,52.90
2022-08-07T13:08:31.070Z,53.87
2022-08-07T13:11:20.133Z,53.43
2022-08-07T13:13:58.445Z,52.93
2022-08-07T13:17:06.248Z,53.07
2022-08-07T13:19:51.758Z,53.32
2022-08-07T13:22:32.523Z,53.84
2022-08-07T13:25:24.175Z,54.41
2022-08-07T13:28:11.390Z,54.87
2022-08-07T13:30:49.147Z,53.82
2022-08-07T13:34:33.577Z,53.41
2022-08-07T13:36:39.402Z,53.91
2022-08-07T13:39:49.225Z,53.77
2022-08-07T13:42:19.139Z,55.11
2022-08-07T13:45:11.732Z,55.06
2022-08-07T13:48:06.094Z,54.52
2022-08-07T13:50:34.240Z,55.32
2022-08-07T13:53:21.975Z,56.12
2022-08-07T13:55:54.586Z,56.85
2022-08-07T13:58:56.187Z,58.02
2022-08-07T14:01:26.551Z,57.13
2022-08-07T14:04:09.617Z,56.36
2022-08-07T14:06:40.826Z,55.82
2022-08-07T14:09:16.968Z,54.78
2022-08-07T14:12:10.309Z,55.62
2022-08-07T14:14:51.279Z,55.81
2022-08-07T14:18:13.617Z,55.94
2022-08-07T14:20:41.883Z,55.43
2022-08-07T14:23:17.951Z,55.43
2022-08-07T14:26:05.705Z,55.60
2022-08-07T14:28:57.124Z,55.53
2022-08-07T14:31:42.372Z,55.85
2022-08-07T14:34:20.185Z,55.33
2022-08-07T14:36:56.344Z,54.16
2022-08-07T14:40:17.213Z,54.38
2022-08-07T14:42:18.597Z,54.70
2022-08-07T14:44:59.753Z,54.73
2022-08-07T14:47:47.201Z,55.15
2022-08-07T14:50:19.824Z,55.07
2022-08-07T14:52:50.191Z,54.41
2022-08-07T14:55:18.830Z,53.73
2022-08-07T14:57:58.517Z,53.20
2022-08-07T15:00:31.240Z,53.46
2022-08-07T15:03:19.045Z,53.74
2022-08-07T15:05:54.174Z,54.71
2022-08-07T15:08:47.603Z,54.97
2022-08-07T15:11:50.805Z,54.00
2022-08-07T15:14:17.994Z,52.65
2022-08-07T15:16:54.735Z,52.30
2022-08-07T15:20:30.426Z,53.00
2022-08-07T15:22:29.080Z,53.25
2022-08-07T15:25:12.890Z,53.61
2022-08-07T15:28:32.339Z,54.29
2022-08-07T15:33:33.881Z,53.27
2022-08-07T15:36:05.713Z,53.54
2022-08-07T15:44:23.850Z,55.04
2022-08-07T15:47:03.652Z,53.89
2022-08-07T15:52:30.331Z,53.73
2022-08-07T15:55:03.386Z,53.74
2022-08-07T15:57:47.528Z,54.63
2022-08-07T16:00:31.696Z,55.11
2022-08-07T16:03:21.745Z,54.75
2022-08-07T16:05:59.195Z,54.43
2022-08-07T16:08:37.884Z,54.41
2022-08-07T16:11:26.281Z,54.91
2022-08-07T16:14:09.541Z,55.41
2022-08-07T16:16:56.987Z,55.70
2022-08-07T16:19:42.196Z,54.95
2022-08-07T16:22:54.900Z,54.99
2022-08-07T16:25:52.677Z,55.54
2022-08-07T16:29:18.540Z,55.77
2022-08-07T16:31:51.329Z,56.98
2022-08-07T16:34:45.265Z,57.43
2022-08-07T16:38:06.318Z,56.81
2022-08-07T16:41:54.288Z,58.35
2022-08-07T16:45:14.791Z,57.82
2022-08-07T16:47:51.287Z,57.16
2022-08-07T16:50:48.157Z,56.41
2022-08-07T16:54:01.252Z,56.46
2022-08-07T16:56:43.063Z,56.80
2022-08-07T16:59:46.167Z,56.83
2022-08-07T17:03:05.946Z,56.84
2022-08-07T17:06:28.651Z,56.06
2022-08-07T17:09:04.159Z,55.70
2022-08-07T17:12:04.705Z,55.93
2022-08-07T17:15:00.582Z,56.54
2022-08-07T17:17:49.546Z,57.83
2022-08-07T17:20:38.040Z,57.75
2022-08-07T17:23:12.839Z,57.54
2022-08-07T17:26:24.344Z,57.27
2022-08-07T17:28:58.471Z,57.33
2022-08-07T17:31:44.225Z,58.11
2022-08-07T17:35:08.872Z,57.93
2022-08-07T17:38:09.625Z,57.25
2022-08-07T17:40:34.373Z,57.48
2022-08-07T17:43:15.253Z,57.87
2022-08-07T17:45:55.778Z,58.83
2022-08-07T17:48:31.934Z,58.45
2022-08-07T17:51:01.700Z,58.02
2022-08-07T17:54:02.256Z,57.74
2022-08-07T17:56:29.884Z,57.70
2022-08-07T17:58:57.338Z,58.24
2022-08-07T18:01:46.505Z,58.29
2022-08-07T18:04:40.399Z,57.84
2022-08-07T18:07:24.465Z,57.48
2022-08-07T18:10:33.068Z,56.93
2022-08-07T18:13:16.949Z,57.60
2022-08-07T18:16:03.451Z,58.23
2022-08-07T18:21:12.638Z,58.45
2022-08-07T18:22:05.385Z,57.70
2022-08-07T18:24:41.291Z,57.66
2022-08-07T18:27:44.896Z,57.67
2022-08-07T18:30:32.785Z,58.66
2022-08-07T18:33:35.209Z,58.96
2022-08-07T18:36:32.714Z,58.40
2022-08-07T18:40:07.320Z,58.46
2022-08-07T18:42:17.194Z,58.70
2022-08-07T18:45:44.363Z,59.80
2022-08-07T18:48:02.507Z,59.14
2022-08-07T18:50:48.236Z,58.20
2022-08-07T18:53:21.921Z,58.07
2022-08-07T18:56:19.328Z,58.49
2022-08-07T18:59:47.085Z,59.41
2022-08-07T19:02:18.365Z,59.36
2022-08-07T19:05:15.454Z,58.58
2022-08-07T19:08:03.751Z,58.51
2022-08-07T19:10:49.832Z,58.72
2022-08-07T19:13:35.904Z,59.16
2022-08-07T19:16:42.939Z,58.94
2022-08-07T19:19:19.280Z,58.12
2022-08-07T19:22:11.170Z,58.14
2022-08-07T19:24:44.666Z,58.10
2022-08-07T19:28:57.868Z,58.88
2022-08-07T19:31:00.551Z,59.04
2022-08-07T19:33:10.152Z,58.53
2022-08-07T19:35:46.901Z,58.04
2022-08-07T19:38:17.663Z,58.47
2022-08-07T19:40:50.438Z,58.94
2022-08-07T19:43:48.938Z,58.77
2022-08-07T19:46:17.827Z,58.14
2022-08-07T19:48:56.399Z,57.54
2022-08-07T19:51:52.839Z,57.64
2022-08-07T19:54:33.335Z,57.89
2022-08-07T19:58:01.619Z,59.02
2022-08-07T19:59:59.956Z,58.23
2022-08-07T20:02:39.198Z,57.29
2022-08-07T20:05:11.600Z,58.89
2022-08-07T20:07:46.509Z,59.12
2022-08-07T20:10:36.711Z,59.53
2022-08-07T20:13:27.111Z,59.25
2022-08-07T20:16:01.363Z,59.01
2022-08-07T20:18:33.373Z,59.61
2022-08-07T20:21:21.143Z,59.97
2022-08-07T20:23:57.819Z,60.09
2022-08-07T20:26:38.704Z,59.54
2022-08-07T20:29:47.200Z,58.92
2022-08-07T20:32:05.964Z,59.07
2022-08-07T20:34:50.817Z,59.26
2022-08-07T20:37:46.828Z,60.49
2022-08-07T20:40:32.985Z,59.92
2022-08-07T20:43:03.761Z,58.77
2022-08-07T20:46:27.149Z,58.11
2022-08-07T20:48:34.482Z,57.99
2022-08-07T20:51:09.505Z,58.54
2022-08-07T20:54:04.580Z,58.66
2022-08-07T20:56:32.313Z,57.80
2022-08-07T20:59:05.062Z,57.15
2022-08-07T21:01:45.851Z,57.12
2022-08-07T21:04:28.053Z,57.85
2022-08-07T21:07:04.306Z,58.83
2022-08-07T21:09:52.740Z,58.99
2022-08-07T21:12:31.896Z,58.80
2022-08-07T21:15:03.446Z,58.14
2022-08-07T21:18:03.233Z,58.10
2022-08-07T21:20:29.688Z,58.14
2022-08-07T21:23:07.638Z,59.33
2022-08-07T21:26:05.769Z,59.38
2022-08-07T21:28:50.306Z,59.15
2022-08-07T21:31:50.140Z,59.06
2022-08-07T21:34:31.919Z,58.91
2022-08-07T21:37:02.017Z,59.82
2022-08-07T21:39:55.147Z,59.95
2022-08-07T21:42:56.256Z,58.95
2022-08-07T21:46:09.984Z,58.32
2022-08-07T21:48:42.349Z,58.53
2022-08-07T21:51:54.557Z,58.92
2022-08-07T21:54:58.081Z,58.85
2022-08-07T21:57:39.354Z,58.43
2022-08-07T22:00:23.246Z,58.20
2022-08-07T22:03:30.660Z,58.72
2022-08-07T22:06:06.554Z,60.34
2022-08-07T22:08:42.635Z,59.91
2022-08-07T22:11:11.483Z,59.19
2022-08-07T22:13:51.848Z,58.87
2022-08-07T22:16:56.591Z,58.69
2022-08-07T22:19:38.994Z,59.13
2022-08-07T22:22:28.669Z,60.20
2022-08-07T22:25:03.388Z,59.95
2022-08-07T22:27:34.028Z,58.98
2022-08-07T22:30:26.585Z,58.84
2022-08-07T22:33:09.319Z,59.34
2022-08-07T22:35:45.963Z,60.28
2022-08-07T22:38:24.065Z,59.70
2022-08-07T22:42:04.219Z,59.20
2022-08-07T22:44:24.804Z,59.37
2022-08-07T22:47:17.170Z,59.66
2022-08-07T22:49:54.521Z,60.19
2022-08-07T22:52:47.128Z,60.33
2022-08-07T22:55:43.640Z,59.54
2022-08-07T22:58:39.529Z,58.94
2022-08-07T23:01:50.018Z,58.69
2022-08-07T23:04:53.358Z,59.00
2022-08-07T23:07:46.608Z,58.68
2022-08-07T23:10:45.592Z,57.84
2022-08-07T23:13:49.191Z,57.83
2022-08-07T23:16:46.682Z,58.03
2022-08-07T23:20:19.508Z,58.81
2022-08-07T23:23:14.646Z,58.91
2022-08-07T23:26:18.760Z,58.09
2022-08-07T23:29:01.808Z,58.29
2022-08-07T23:34:18.597Z,58.65
2022-08-07T23:35:12.579Z,59.46
2022-08-07T23:38:04.101Z,59.59
2022-08-07T23:40:49.275Z,58.90
2022-08-07T23:43:52.754Z,58.71
2022-08-07T23:46:43.196Z,58.18
2022-08-07T23:49:50.669Z,58.37
2022-08-07T23:52:53.853Z,58.63
2022-08-07T23:55:53.448Z,58.21
2022-08-07T23:58:31.883Z,57.75
